Avalon — PBSF — position and weather

sailwx.info

Track history (hours):
 
Tides and Currents Weather Stations Pressure Air Temp Water Temp Dewpoint Dewpoint Depression Visibility Wind Speed Wind Dir Waves Ship Positions

Avalon

Last reported at 2017-Jul-20 15:42 UTC. Time now 2017-Jul-21 12:48 UTC.
Position N 56°30' E 007°38'.

Length 89 m; draft 5.5 m.

Type: Cargo ship. MMSI: 246578000.

Date/timePositionNaut miles runAvg speedWind from/ knotsBaromVisibWave heightAir tempDewpointWater temp
2017-Jul-20 15:42N 56°30' E 007°38'2 9.4
2017-Jul-20 15:30N 56°31' E 007°40'5 9.4
2017-Jul-20 14:58N 56°35' E 007°45'9 9.2
2017-Jul-20 14:00N 56°43' E 007°54'5 9.1
2017-Jul-20 13:30N 56°47' E 007°59'5 9.2
2017-Jul-20 12:59N 56°51' E 008°03'5 9.2
2017-Jul-20 12:29N 56°55' E 008°08'4 9.4
2017-Jul-20 12:00N 56°58' E 008°12'5 9.7
2017-Jul-20 11:30N 57°03' E 008°17'5 9.9
2017-Jul-20 10:59N 57°07' E 008°22'510.0
2017-Jul-20 10:30N 57°11' E 008°27'510.2
2017-Jul-20 10:00N 57°15' E 008°32'5 9.8
2017-Jul-20 09:30N 57°19' E 008°38'510.3
2017-Jul-20 08:59N 57°21' E 008°46'510.4
2017-Jul-20 08:29N 57°24' E 008°55'510.3
2017-Jul-20 08:00N 57°26' E 009°03'510.3
2017-Jul-20 07:29N 57°28' E 009°12'510.5
2017-Jul-20 06:59N 57°30' E 009°21'510.8
2017-Jul-20 06:30N 57°32' E 009°30'510.9
2017-Jul-20 06:00N 57°35' E 009°39'511.0
2017-Jul-20 05:30N 57°37' E 009°49'611.0
2017-Jul-20 05:00N 57°39' E 009°58'611.2
2017-Jul-20 04:30N 57°41' E 010°08'611.1
2017-Jul-20 04:00N 57°43' E 010°17'610.9
2017-Jul-20 03:30N 57°45' E 010°27'510.9
2017-Jul-20 03:01N 57°46' E 010°37'5 9.5
2017-Jul-20 02:30N 57°45' E 010°46'5 9.9
2017-Jul-20 02:00N 57°40' E 010°45'510.3
2017-Jul-20 01:30N 57°35' E 010°45'510.4
2017-Jul-20 01:00N 57°30' E 010°45'5 9.6
2017-Jul-20 00:30N 57°25' E 010°44'510.8
2017-Jul-20 00:00N 57°20' E 010°44'510.7
2017-Jul-19 23:30N 57°14' E 010°44'510.6
2017-Jul-19 23:01N 57°09' E 010°46'510.6
2017-Jul-19 22:30N 57°04' E 010°49'510.4
2017-Jul-19 22:00N 56°59' E 010°52'510.0
2017-Jul-19 21:31N 56°54' E 010°52'510.5
2017-Jul-19 21:00N 56°49' E 010°55'610.7
2017-Jul-19 20:29N 56°44' E 011°00'511.1
2017-Jul-19 20:00N 56°39' E 011°03'611.1
2017-Jul-19 19:30N 56°34' E 011°04'1510.9
2017-Jul-19 18:10N 56°19' E 011°07'26 0.7
2017-Jul-18 07:03N 56°05' E 010°28'111.9
2017-Jul-18 06:56N 56°06' E 010°26'512.1
2017-Jul-18 06:30N 56°08' E 010°18'3 0.1
2017-Jul-17 09:42N 56°09' E 010°13'0 0.0
2017-Jul-17 05:27N 56°09' E 010°13'0 0.0
2017-Jul-17 04:57N 56°09' E 010°13'0 0.0
2017-Jul-17 04:21N 56°09' E 010°13'0 0.0
2017-Jul-17 03:57N 56°09' E 010°13'0 0.0
2017-Jul-17 03:21N 56°09' E 010°13'0 0.0
2017-Jul-17 03:00N 56°09' E 010°13'0 0.0
2017-Jul-17 02:27N 56°09' E 010°13'0 0.0
2017-Jul-17 01:45N 56°09' E 010°13'0 0.0
2017-Jul-16 07:45N 56°09' E 010°13'0 0.0
2017-Jul-16 07:21N 56°09' E 010°13'0 0.0
2017-Jul-16 06:57N 56°09' E 010°13'0 0.0
2017-Jul-16 05:57N 56°09' E 010°13'0 0.0
2017-Jul-16 05:27N 56°09' E 010°13'0 0.0
2017-Jul-16 04:57N 56°09' E 010°13'0 0.0
2017-Jul-16 03:39N 56°09' E 010°13'0 0.0
2017-Jul-16 03:21N 56°09' E 010°13'0 0.0
2017-Jul-15 22:57N 56°09' E 010°13'0 0.0
2017-Jul-15 22:21N 56°09' E 010°13'0 0.0
2017-Jul-15 11:12N 56°09' E 010°13'1 1.4
2017-Jul-15 10:47N 56°10' E 010°14'  
2017-Jul-12 21:34N 56°09' E 010°13'0 0.6
2017-Jul-12 21:18N 56°09' E 010°13'1 3.9
2017-Jul-12 20:59N 56°09' E 010°15'5 9.8
2017-Jul-12 20:30N 56°06' E 010°20'115 6.2
2017-Jul-12 02:04N 54°14' E 009°36'1 8.1
2017-Jul-12 01:55N 54°13' E 009°35'4 8.3
2017-Jul-12 01:27N 54°11' E 009°29'4 7.6
2017-Jul-12 00:55N 54°09' E 009°22'4 7.7
2017-Jul-12 00:26N 54°06' E 009°20'4 8.3
2017-Jul-12 00:00N 54°02' E 009°18'4 8.1
2017-Jul-11 23:30N 53°59' E 009°16'3 5.9
2017-Jul-11 23:00N 53°56' E 009°13'4 7.3
2017-Jul-11 22:30N 53°54' E 009°09'0 0.1
2017-Jul-11 22:00N 53°53' E 009°09'3 5.3
2017-Jul-11 21:30N 53°53' E 009°13'612.2
2017-Jul-11 21:00N 53°50' E 009°22'612.5
2017-Jul-11 20:30N 53°44' E 009°27'612.2
2017-Jul-11 20:00N 53°39' E 009°32'612.6
2017-Jul-11 19:30N 53°34' E 009°39'612.9
2017-Jul-11 19:00N 53°33' E 009°50'4 8.6
2017-Jul-11 18:30N 53°31' E 009°57'0 0.3
2017-Jul-11 18:00N 53°31' E 009°57'0 0.0
2017-Jul-11 17:30N 53°31' E 009°57'0 0.0
2017-Jul-11 17:00N 53°31' E 009°57'0 0.0
2017-Jul-11 16:30N 53°31' E 009°57'0 0.0
2017-Jul-11 16:00N 53°31' E 009°57'0 0.0
2017-Jul-11 15:30N 53°31' E 009°57'0 0.0
2017-Jul-11 15:00N 53°31' E 009°57'0 0.0
2017-Jul-11 14:30N 53°31' E 009°57'0 0.0
2017-Jul-11 13:51N 53°31' E 009°57'0 0.0
2017-Jul-11 13:30N 53°31' E 009°57'0 0.0
2017-Jul-11 13:00N 53°31' E 009°57'0 0.0
2017-Jul-11 12:27N 53°31' E 009°57'0 0.0
2017-Jul-11 12:00N 53°31' E 009°57'0 0.0
2017-Jul-11 11:30N 53°31' E 009°57'0 0.0
2017-Jul-11 11:00N 53°31' E 009°57'0 0.0
2017-Jul-11 10:30N 53°31' E 009°57'0 0.0
2017-Jul-11 09:57N 53°31' E 009°57'0 0.0
2017-Jul-11 09:30N 53°31' E 009°57'0 0.0
2017-Jul-11 09:00N 53°31' E 009°57'0 0.0
2017-Jul-11 08:30N 53°31' E 009°57'0 0.0
2017-Jul-11 08:00N 53°31' E 009°57'1 2.3
2017-Jul-11 07:30N 53°32' E 009°56'3 5.7
2017-Jul-11 07:00N 53°33' E 009°51'3 6.3
2017-Jul-11 06:30N 53°34' E 009°46'4 8.0
2017-Jul-11 06:00N 53°34' E 009°40'5 9.4
2017-Jul-11 05:30N 53°37' E 009°33'0 0.1
2017-Jul-11 04:58N 53°37' E 009°33'0 0.2
2017-Jul-11 04:28N 53°37' E 009°33'0 0.0
2017-Jul-11 03:58N 53°37' E 009°33'0 0.0
2017-Jul-11 03:28N 53°37' E 009°33'0 0.0
2017-Jul-11 02:58N 53°37' E 009°33'0 0.0
2017-Jul-11 02:28N 53°37' E 009°33'0 0.0
2017-Jul-11 01:58N 53°37' E 009°33'0 0.0
2017-Jul-11 01:28N 53°37' E 009°33'0 0.0
2017-Jul-11 00:58N 53°37' E 009°33'0 0.0
2017-Jul-11 00:28N 53°37' E 009°33'0 0.0
2017-Jul-10 23:58N 53°37' E 009°33'0 0.0
2017-Jul-10 23:30N 53°37' E 009°33'1 2.1
2017-Jul-10 23:00N 53°38' E 009°32'4 8.7
2017-Jul-10 22:31N 53°42' E 009°30'5 9.8
2017-Jul-10 22:00N 53°45' E 009°24'5 9.6
2017-Jul-10 21:30N 53°50' E 009°21'5 9.4
2017-Jul-10 21:00N 53°52' E 009°15'4 8.6
2017-Jul-10 20:30N 53°53' E 009°07'4 8.6
2017-Jul-10 20:00N 53°51' E 009°01'4 7.8
2017-Jul-10 19:30N 53°50' E 008°54'4 8.0
2017-Jul-10 19:00N 53°50' E 008°47'4 7.5
2017-Jul-10 18:30N 53°53' E 008°42'4 7.1
2017-Jul-10 18:00N 53°56' E 008°39'4 8.0
2017-Jul-10 17:30N 53°58' E 008°34'4 8.9
2017-Jul-10 17:01N 53°59' E 008°26'4 8.7
2017-Jul-10 16:30N 53°59' E 008°19'510.6
2017-Jul-10 16:00N 53°59' E 008°10'  
Track history (hours):
 
Tides and Currents Weather Stations Pressure Air Temp Water Temp Dewpoint Dewpoint Depression Visibility Wind Speed Wind Dir Waves Ship Positions

Avalon

Last reported at 2017-Jul-20 15:42 UTC. Time now 2017-Jul-21 12:48 UTC.
Position N 56°30' E 007°38'.

Length 89 m; draft 5.5 m.

Type: Cargo ship. MMSI: 246578000.

Date/timePositionNaut miles runAvg speedWind from/ knotsBaromVisibWave heightAir tempDewpointWater temp
2017-Jul-20 15:42N 56°30' E 007°38'2 9.4
2017-Jul-20 15:30N 56°31' E 007°40'5 9.4
2017-Jul-20 14:58N 56°35' E 007°45'9 9.2
2017-Jul-20 14:00N 56°43' E 007°54'5 9.1
2017-Jul-20 13:30N 56°47' E 007°59'5 9.2
2017-Jul-20 12:59N 56°51' E 008°03'5 9.2
2017-Jul-20 12:29N 56°55' E 008°08'4 9.4
2017-Jul-20 12:00N 56°58' E 008°12'5 9.7
2017-Jul-20 11:30N 57°03' E 008°17'5 9.9
2017-Jul-20 10:59N 57°07' E 008°22'510.0
2017-Jul-20 10:30N 57°11' E 008°27'510.2
2017-Jul-20 10:00N 57°15' E 008°32'5 9.8
2017-Jul-20 09:30N 57°19' E 008°38'510.3
2017-Jul-20 08:59N 57°21' E 008°46'510.4
2017-Jul-20 08:29N 57°24' E 008°55'510.3
2017-Jul-20 08:00N 57°26' E 009°03'510.3
2017-Jul-20 07:29N 57°28' E 009°12'510.5
2017-Jul-20 06:59N 57°30' E 009°21'510.8
2017-Jul-20 06:30N 57°32' E 009°30'510.9
2017-Jul-20 06:00N 57°35' E 009°39'511.0
2017-Jul-20 05:30N 57°37' E 009°49'611.0
2017-Jul-20 05:00N 57°39' E 009°58'611.2
2017-Jul-20 04:30N 57°41' E 010°08'611.1
2017-Jul-20 04:00N 57°43' E 010°17'610.9
2017-Jul-20 03:30N 57°45' E 010°27'510.9
2017-Jul-20 03:01N 57°46' E 010°37'5 9.5
2017-Jul-20 02:30N 57°45' E 010°46'5 9.9
2017-Jul-20 02:00N 57°40' E 010°45'510.3
2017-Jul-20 01:30N 57°35' E 010°45'510.4
2017-Jul-20 01:00N 57°30' E 010°45'5 9.6
2017-Jul-20 00:30N 57°25' E 010°44'510.8
2017-Jul-20 00:00N 57°20' E 010°44'510.7
2017-Jul-19 23:30N 57°14' E 010°44'510.6
2017-Jul-19 23:01N 57°09' E 010°46'510.6
2017-Jul-19 22:30N 57°04' E 010°49'510.4
2017-Jul-19 22:00N 56°59' E 010°52'510.0
2017-Jul-19 21:31N 56°54' E 010°52'510.5
2017-Jul-19 21:00N 56°49' E 010°55'610.7
2017-Jul-19 20:29N 56°44' E 011°00'511.1
2017-Jul-19 20:00N 56°39' E 011°03'611.1
2017-Jul-19 19:30N 56°34' E 011°04'1510.9
2017-Jul-19 18:10N 56°19' E 011°07'26 0.7
2017-Jul-18 07:03N 56°05' E 010°28'111.9
2017-Jul-18 06:56N 56°06' E 010°26'512.1
2017-Jul-18 06:30N 56°08' E 010°18'3 0.1
2017-Jul-17 09:42N 56°09' E 010°13'0 0.0
2017-Jul-17 05:27N 56°09' E 010°13'0 0.0
2017-Jul-17 04:57N 56°09' E 010°13'0 0.0
2017-Jul-17 04:21N 56°09' E 010°13'0 0.0
2017-Jul-17 03:57N 56°09' E 010°13'0 0.0
2017-Jul-17 03:21N 56°09' E 010°13'0 0.0
2017-Jul-17 03:00N 56°09' E 010°13'0 0.0
2017-Jul-17 02:27N 56°09' E 010°13'0 0.0
2017-Jul-17 01:45N 56°09' E 010°13'0 0.0
2017-Jul-16 07:45N 56°09' E 010°13'0 0.0
2017-Jul-16 07:21N 56°09' E 010°13'0 0.0
2017-Jul-16 06:57N 56°09' E 010°13'0 0.0
2017-Jul-16 05:57N 56°09' E 010°13'0 0.0
2017-Jul-16 05:27N 56°09' E 010°13'0 0.0
2017-Jul-16 04:57N 56°09' E 010°13'0 0.0
2017-Jul-16 03:39N 56°09' E 010°13'0 0.0
2017-Jul-16 03:21N 56°09' E 010°13'0 0.0
2017-Jul-15 22:57N 56°09' E 010°13'0 0.0
2017-Jul-15 22:21N 56°09' E 010°13'0 0.0
2017-Jul-15 11:12N 56°09' E 010°13'1 1.4
2017-Jul-15 10:47N 56°10' E 010°14'  
2017-Jul-12 21:34N 56°09' E 010°13'0 0.6
2017-Jul-12 21:18N 56°09' E 010°13'1 3.9
2017-Jul-12 20:59N 56°09' E 010°15'5 9.8
2017-Jul-12 20:30N 56°06' E 010°20'115 6.2
2017-Jul-12 02:04N 54°14' E 009°36'1 8.1
2017-Jul-12 01:55N 54°13' E 009°35'4 8.3
2017-Jul-12 01:27N 54°11' E 009°29'4 7.6
2017-Jul-12 00:55N 54°09' E 009°22'4 7.7
2017-Jul-12 00:26N 54°06' E 009°20'4 8.3
2017-Jul-12 00:00N 54°02' E 009°18'4 8.1
2017-Jul-11 23:30N 53°59' E 009°16'3 5.9
2017-Jul-11 23:00N 53°56' E 009°13'4 7.3
2017-Jul-11 22:30N 53°54' E 009°09'0 0.1
2017-Jul-11 22:00N 53°53' E 009°09'3 5.3
2017-Jul-11 21:30N 53°53' E 009°13'612.2
2017-Jul-11 21:00N 53°50' E 009°22'612.5
2017-Jul-11 20:30N 53°44' E 009°27'612.2
2017-Jul-11 20:00N 53°39' E 009°32'612.6
2017-Jul-11 19:30N 53°34' E 009°39'612.9
2017-Jul-11 19:00N 53°33' E 009°50'4 8.6
2017-Jul-11 18:30N 53°31' E 009°57'0 0.3
2017-Jul-11 18:00N 53°31' E 009°57'0 0.0
2017-Jul-11 17:30N 53°31' E 009°57'0 0.0
2017-Jul-11 17:00N 53°31' E 009°57'0 0.0
2017-Jul-11 16:30N 53°31' E 009°57'0 0.0
2017-Jul-11 16:00N 53°31' E 009°57'0 0.0
2017-Jul-11 15:30N 53°31' E 009°57'0 0.0
2017-Jul-11 15:00N 53°31' E 009°57'0 0.0
2017-Jul-11 14:30N 53°31' E 009°57'0 0.0
2017-Jul-11 13:51N 53°31' E 009°57'0 0.0
2017-Jul-11 13:30N 53°31' E 009°57'0 0.0
2017-Jul-11 13:00N 53°31' E 009°57'0 0.0
2017-Jul-11 12:27N 53°31' E 009°57'0 0.0
2017-Jul-11 12:00N 53°31' E 009°57'0 0.0
2017-Jul-11 11:30N 53°31' E 009°57'0 0.0
2017-Jul-11 11:00N 53°31' E 009°57'0 0.0
2017-Jul-11 10:30N 53°31' E 009°57'0 0.0
2017-Jul-11 09:57N 53°31' E 009°57'0 0.0
2017-Jul-11 09:30N 53°31' E 009°57'0 0.0
2017-Jul-11 09:00N 53°31' E 009°57'0 0.0
2017-Jul-11 08:30N 53°31' E 009°57'0 0.0
2017-Jul-11 08:00N 53°31' E 009°57'1 2.3
2017-Jul-11 07:30N 53°32' E 009°56'3 5.7
2017-Jul-11 07:00N 53°33' E 009°51'3 6.3
2017-Jul-11 06:30N 53°34' E 009°46'4 8.0
2017-Jul-11 06:00N 53°34' E 009°40'5 9.4
2017-Jul-11 05:30N 53°37' E 009°33'0 0.1
2017-Jul-11 04:58N 53°37' E 009°33'0 0.2
2017-Jul-11 04:28N 53°37' E 009°33'0 0.0
2017-Jul-11 03:58N 53°37' E 009°33'0 0.0
2017-Jul-11 03:28N 53°37' E 009°33'0 0.0
2017-Jul-11 02:58N 53°37' E 009°33'0 0.0
2017-Jul-11 02:28N 53°37' E 009°33'0 0.0
2017-Jul-11 01:58N 53°37' E 009°33'0 0.0
2017-Jul-11 01:28N 53°37' E 009°33'0 0.0
2017-Jul-11 00:58N 53°37' E 009°33'0 0.0
2017-Jul-11 00:28N 53°37' E 009°33'0 0.0
2017-Jul-10 23:58N 53°37' E 009°33'0 0.0
2017-Jul-10 23:30N 53°37' E 009°33'1 2.1
2017-Jul-10 23:00N 53°38' E 009°32'4 8.7
2017-Jul-10 22:31N 53°42' E 009°30'5 9.8
2017-Jul-10 22:00N 53°45' E 009°24'5 9.6
2017-Jul-10 21:30N 53°50' E 009°21'5 9.4
2017-Jul-10 21:00N 53°52' E 009°15'4 8.6
2017-Jul-10 20:30N 53°53' E 009°07'4 8.6
2017-Jul-10 20:00N 53°51' E 009°01'4 7.8
2017-Jul-10 19:30N 53°50' E 008°54'4 8.0
2017-Jul-10 19:00N 53°50' E 008°47'4 7.5
2017-Jul-10 18:30N 53°53' E 008°42'4 7.1
2017-Jul-10 18:00N 53°56' E 008°39'4 8.0
2017-Jul-10 17:30N 53°58' E 008°34'4 8.9
2017-Jul-10 17:01N 53°59' E 008°26'4 8.7
2017-Jul-10 16:30N 53°59' E 008°19'510.6
2017-Jul-10 16:00N 53°59' E 008°10'  

Dump ship's entire track history